createdAt,value
2022-10-13T00:00:54.235Z,5.43
2022-10-13T00:03:03.543Z,6.10
2022-10-13T00:05:12.715Z,7.03
2022-10-13T00:07:22.942Z,3.90
2022-10-13T00:09:31.734Z,4.13
2022-10-13T00:11:42.442Z,2.70
2022-10-13T00:13:55.032Z,4.20
2022-10-13T00:16:05.165Z,4.87
2022-10-13T00:18:14.288Z,3.70
2022-10-13T00:20:23.016Z,6.30
2022-10-13T00:22:32.601Z,4.83
2022-10-13T00:24:41.584Z,5.30
2022-10-13T00:26:53.905Z,4.63
2022-10-13T00:29:02.561Z,5.97
2022-10-13T00:31:18.942Z,3.87
2022-10-13T00:33:27.760Z,3.50
2022-10-13T00:35:40.130Z,5.73
2022-10-13T00:37:48.999Z,3.60
2022-10-13T00:40:00.232Z,6.57
2022-10-13T00:42:13.432Z,3.90
2022-10-13T00:44:40.472Z,6.23
2022-10-13T00:46:49.475Z,5.33
2022-10-13T00:48:58.861Z,5.87
2022-10-13T00:51:07.821Z,3.83
2022-10-13T00:53:17.100Z,4.97
2022-10-13T00:55:29.822Z,6.67
2022-10-13T00:57:41.176Z,7.67
2022-10-13T00:59:50.878Z,2.20
2022-10-13T01:02:08.152Z,4.50
2022-10-13T01:04:17.481Z,4.17
2022-10-13T01:06:29.456Z,3.37
2022-10-13T01:08:38.568Z,3.57
2022-10-13T01:10:53.079Z,7.23
2022-10-13T01:13:07.108Z,5.83
2022-10-13T01:15:19.002Z,4.60
2022-10-13T01:17:33.071Z,4.20
2022-10-13T01:20:03.200Z,3.90
2022-10-13T01:22:20.454Z,3.20
2022-10-13T01:24:34.199Z,4.37
2022-10-13T01:27:00.412Z,3.33
2022-10-13T01:29:31.749Z,3.77
2022-10-13T01:31:47.138Z,3.50
2022-10-13T01:33:58.143Z,2.80
2022-10-13T01:36:12.260Z,2.00
2022-10-13T01:38:29.248Z,5.07
2022-10-13T01:40:42.262Z,4.73
2022-10-13T01:42:57.317Z,4.17
2022-10-13T01:45:10.465Z,3.33
2022-10-13T01:47:21.375Z,6.57
2022-10-13T01:49:33.789Z,4.50
2022-10-13T01:51:44.954Z,2.23
2022-10-13T01:53:53.574Z,4.73
2022-10-13T01:56:03.173Z,4.17
2022-10-13T01:58:17.343Z,2.57
2022-10-13T02:00:29.538Z,6.00
2022-10-13T02:02:46.102Z,4.13
2022-10-13T02:04:59.413Z,5.00
2022-10-13T02:07:13.571Z,5.77
2022-10-13T02:09:27.950Z,7.97
2022-10-13T02:11:36.997Z,5.87
2022-10-13T02:13:47.553Z,2.80
2022-10-13T02:15:58.224Z,4.00
2022-10-13T02:18:09.607Z,6.50
2022-10-13T02:20:19.138Z,7.13
2022-10-13T02:22:33.764Z,4.30
2022-10-13T02:24:44.156Z,7.77
2022-10-13T02:26:53.317Z,6.87
2022-10-13T02:29:04.130Z,4.33
2022-10-13T02:31:16.148Z,3.50
2022-10-13T02:33:26.334Z,6.87
2022-10-13T02:35:35.864Z,4.83
2022-10-13T02:37:44.900Z,8.10
2022-10-13T02:39:53.851Z,7.73
2022-10-13T02:42:02.881Z,7.47
2022-10-13T02:44:11.840Z,6.37
2022-10-13T02:46:20.455Z,3.93
2022-10-13T02:48:32.430Z,8.23
2022-10-13T02:50:41.408Z,3.53
2022-10-13T02:52:53.535Z,5.83
2022-10-13T02:55:02.156Z,3.93
2022-10-13T02:57:10.796Z,3.33
2022-10-13T02:59:19.351Z,9.10
2022-10-13T03:01:29.582Z,6.93
2022-10-13T03:03:45.211Z,6.23
2022-10-13T03:05:54.071Z,11.23
2022-10-13T03:08:03.120Z,5.03
2022-10-13T03:10:12.176Z,2.60
2022-10-13T03:12:21.531Z,6.37
2022-10-13T03:14:32.567Z,6.90
2022-10-13T03:16:41.221Z,5.77
2022-10-13T03:18:52.014Z,6.83
2022-10-13T03:21:01.655Z,7.17
2022-10-13T03:23:10.534Z,5.33
2022-10-13T03:25:19.463Z,11.10
2022-10-13T03:27:28.592Z,3.90
2022-10-13T03:29:37.837Z,7.63
2022-10-13T03:31:49.774Z,8.80
2022-10-13T03:34:02.159Z,7.30
2022-10-13T03:36:11.112Z,8.33
2022-10-13T03:38:20.056Z,4.80
2022-10-13T03:40:31.102Z,4.47
2022-10-13T03:42:40.338Z,6.83
2022-10-13T03:44:55.341Z,6.07
2022-10-13T03:47:05.373Z,8.17
2022-10-13T03:49:15.810Z,4.03
2022-10-13T03:51:24.984Z,6.93
2022-10-13T03:53:33.720Z,9.10
2022-10-13T03:55:42.316Z,7.73
2022-10-13T03:57:52.455Z,7.37
2022-10-13T04:00:01.750Z,6.50
2022-10-13T04:02:10.655Z,10.43
2022-10-13T04:04:21.324Z,8.60
2022-10-13T04:06:32.361Z,10.10
2022-10-13T04:08:41.457Z,5.17
2022-10-13T04:10:50.481Z,9.63
2022-10-13T04:13:00.010Z,7.13
2022-10-13T04:15:09.636Z,9.53
2022-10-13T04:17:18.181Z,10.07
2022-10-13T04:19:28.548Z,9.20
2022-10-13T04:21:37.829Z,7.43
2022-10-13T04:23:47.159Z,7.33
2022-10-13T04:25:56.624Z,7.03
2022-10-13T04:28:05.448Z,12.33
2022-10-13T04:30:14.581Z,4.43
2022-10-13T04:32:23.506Z,7.70
2022-10-13T04:34:33.535Z,3.93
2022-10-13T04:36:43.979Z,11.67
2022-10-13T04:38:53.255Z,8.17
2022-10-13T04:41:04.640Z,5.90
2022-10-13T04:43:13.480Z,6.97
2022-10-13T04:45:22.004Z,10.97
2022-10-13T04:47:36.125Z,7.27
2022-10-13T04:49:47.428Z,10.53
2022-10-13T04:51:57.582Z,6.00
2022-10-13T04:54:06.867Z,4.63
2022-10-13T04:56:17.197Z,6.97
2022-10-13T04:58:28.565Z,6.97
2022-10-13T05:00:37.402Z,6.37
2022-10-13T05:02:46.107Z,9.20
2022-10-13T05:05:08.623Z,7.97
2022-10-13T05:07:18.543Z,3.47
2022-10-13T05:09:27.783Z,9.80
2022-10-13T05:11:36.516Z,7.87
2022-10-13T05:13:46.172Z,7.07
2022-10-13T05:15:55.068Z,10.10
2022-10-13T05:18:06.756Z,11.27
2022-10-13T05:20:18.368Z,6.07
2022-10-13T05:22:27.376Z,8.83
2022-10-13T05:24:37.859Z,7.03
2022-10-13T05:26:46.669Z,6.97
2022-10-13T05:28:55.199Z,8.83
2022-10-13T05:31:14.496Z,6.57
2022-10-13T05:33:23.177Z,8.37
2022-10-13T05:35:33.104Z,9.87
2022-10-13T05:37:42.308Z,11.47
2022-10-13T05:39:51.997Z,6.23
2022-10-13T05:42:01.170Z,8.00
2022-10-13T05:44:10.755Z,11.30
2022-10-13T05:46:19.383Z,9.77
2022-10-13T05:48:28.020Z,8.67
2022-10-13T05:50:38.375Z,10.97
2022-10-13T05:52:47.723Z,8.47
2022-10-13T05:54:57.600Z,16.37
2022-10-13T05:57:07.598Z,10.73
2022-10-13T05:59:17.894Z,5.77
2022-10-13T06:01:27.368Z,10.73
2022-10-13T06:03:36.821Z,13.30
2022-10-13T06:05:48.647Z,10.67
2022-10-13T06:07:58.476Z,11.67
2022-10-13T06:10:07.713Z,11.97
2022-10-13T06:12:16.483Z,11.10
2022-10-13T06:14:25.295Z,12.00
2022-10-13T06:16:34.593Z,8.80
2022-10-13T06:18:43.718Z,8.67
2022-10-13T06:20:54.414Z,10.10
2022-10-13T06:23:03.376Z,10.97
2022-10-13T06:25:12.519Z,7.93
2022-10-13T06:27:21.430Z,10.47
2022-10-13T06:29:30.075Z,15.93
2022-10-13T06:31:38.649Z,8.90
2022-10-13T06:33:47.567Z,15.93
2022-10-13T06:35:57.844Z,14.90
2022-10-13T06:38:06.508Z,11.03
2022-10-13T06:40:15.277Z,7.77
2022-10-13T06:42:24.382Z,10.20
2022-10-13T06:44:33.088Z,11.10
2022-10-13T06:46:41.823Z,7.77
2022-10-13T06:48:52.048Z,11.67
2022-10-13T06:51:05.301Z,14.07
2022-10-13T06:53:14.213Z,13.70
2022-10-13T06:55:23.446Z,8.27
2022-10-13T06:57:32.087Z,8.77
2022-10-13T06:59:40.704Z,10.77
2022-10-13T07:01:51.867Z,13.10
2022-10-13T07:04:00.848Z,12.33
2022-10-13T07:06:11.767Z,13.50
2022-10-13T07:08:20.910Z,7.07
2022-10-13T07:10:29.502Z,8.40
2022-10-13T07:12:38.429Z,9.43
2022-10-13T07:14:47.432Z,8.50
2022-10-13T07:16:56.133Z,10.57
2022-10-13T07:19:05.066Z,7.87
2022-10-13T07:21:15.044Z,9.60
2022-10-13T07:23:23.724Z,8.23
2022-10-13T07:25:32.728Z,12.63
2022-10-13T07:27:42.502Z,10.50
2022-10-13T07:29:51.684Z,9.97
2022-10-13T07:32:00.257Z,11.07
2022-10-13T07:34:09.517Z,10.43
2022-10-13T07:36:20.958Z,11.10
2022-10-13T07:38:29.790Z,11.47
2022-10-13T07:40:38.241Z,8.43
2022-10-13T07:42:46.728Z,9.90
2022-10-13T07:44:55.957Z,9.10
2022-10-13T07:47:04.534Z,8.53
2022-10-13T07:49:16.068Z,7.50
2022-10-13T07:51:27.083Z,9.20
2022-10-13T07:53:36.873Z,8.43
2022-10-13T07:55:47.541Z,9.13
2022-10-13T07:57:56.761Z,11.63
2022-10-13T08:00:07.023Z,8.20
2022-10-13T08:02:16.005Z,7.43
2022-10-13T08:04:25.718Z,7.10
2022-10-13T08:06:35.975Z,8.57
2022-10-13T08:08:44.539Z,14.97
2022-10-13T08:13:07.742Z,10.43
2022-10-13T08:15:16.779Z,7.97
2022-10-13T08:17:25.732Z,8.20
2022-10-13T08:19:34.264Z,11.83
2022-10-13T08:22:01.803Z,7.47
2022-10-13T08:24:13.433Z,8.63
2022-10-13T08:26:26.179Z,8.13
2022-10-13T08:28:37.854Z,8.10
2022-10-13T08:30:47.129Z,4.43
2022-10-13T08:32:55.990Z,9.03
2022-10-13T08:35:04.779Z,8.00
2022-10-13T08:37:16.907Z,10.17
2022-10-13T08:39:26.421Z,7.60
2022-10-13T08:41:38.234Z,10.57
2022-10-13T08:44:24.693Z,5.93
2022-10-13T08:46:19.776Z,8.67
2022-10-13T08:48:30.110Z,8.93
2022-10-13T08:50:41.207Z,8.20
2022-10-13T08:52:52.403Z,7.87
2022-10-13T08:55:00.882Z,12.13
2022-10-13T08:57:11.086Z,6.17
2022-10-13T08:59:21.802Z,4.17
2022-10-13T09:01:31.694Z,10.50
2022-10-13T09:03:45.165Z,8.27
2022-10-13T09:06:00.476Z,9.97
2022-10-13T09:08:11.517Z,8.10
2022-10-13T09:10:20.410Z,8.20
2022-10-13T09:12:31.633Z,8.57
2022-10-13T09:14:41.240Z,9.27
2022-10-13T09:16:50.347Z,6.33
2022-10-13T09:19:14.154Z,8.07
2022-10-13T09:21:24.662Z,9.73
2022-10-13T09:23:38.216Z,11.30
2022-10-13T09:25:51.006Z,9.17
2022-10-13T09:28:00.861Z,6.30
2022-10-13T09:30:25.944Z,8.87
2022-10-13T09:32:37.888Z,9.27
2022-10-13T09:34:47.746Z,11.33
2022-10-13T09:37:00.419Z,6.70
2022-10-13T09:39:23.936Z,8.73
2022-10-13T09:41:33.218Z,9.93
2022-10-13T09:43:43.706Z,9.77
2022-10-13T09:45:52.403Z,3.73
2022-10-13T09:48:03.832Z,10.60
2022-10-13T09:50:18.611Z,6.90
2022-10-13T09:52:28.010Z,9.47
2022-10-13T09:54:44.293Z,7.87
2022-10-13T09:56:55.498Z,9.07
2022-10-13T09:59:10.091Z,8.63
2022-10-13T10:01:22.145Z,5.67
2022-10-13T10:03:32.568Z,12.57
2022-10-13T10:05:45.307Z,6.47
2022-10-13T10:07:54.527Z,10.37
2022-10-13T10:10:09.517Z,5.57
2022-10-13T10:12:24.244Z,7.60
2022-10-13T10:14:39.654Z,7.10
2022-10-13T10:16:51.792Z,5.80
2022-10-13T10:19:04.191Z,6.40
2022-10-13T10:21:14.940Z,7.90
2022-10-13T10:23:27.958Z,8.50
2022-10-13T10:25:41.901Z,6.93
2022-10-13T10:27:54.593Z,6.80
2022-10-13T10:30:06.468Z,8.53
2022-10-13T10:32:24.338Z,5.73
2022-10-13T10:34:44.649Z,5.70
2022-10-13T10:36:55.759Z,7.50
2022-10-13T10:39:08.687Z,10.33
2022-10-13T10:41:26.791Z,5.33
2022-10-13T10:43:42.014Z,6.30
2022-10-13T10:45:51.151Z,3.67
2022-10-13T10:48:01.907Z,5.67
2022-10-13T10:50:15.568Z,5.73
2022-10-13T10:52:26.746Z,3.30
2022-10-13T10:54:46.708Z,5.40
2022-10-13T10:57:02.655Z,6.37
2022-10-13T10:59:19.445Z,5.30
2022-10-13T11:01:34.163Z,4.37
2022-10-13T11:03:47.133Z,7.00
2022-10-13T11:06:03.056Z,6.00
2022-10-13T11:08:27.811Z,5.03
2022-10-13T11:10:36.937Z,7.27
2022-10-13T11:13:08.545Z,5.87
2022-10-13T11:15:21.614Z,5.43
2022-10-13T11:17:31.646Z,2.93
2022-10-13T11:19:41.478Z,3.83
2022-10-13T11:22:24.052Z,4.27
2022-10-13T11:24:54.177Z,8.67
2022-10-13T11:27:20.713Z,6.57
2022-10-13T11:29:55.038Z,3.37
2022-10-13T11:32:04.901Z,4.33
2022-10-13T11:34:27.755Z,2.87
2022-10-13T11:36:52.321Z,6.83
2022-10-13T11:39:04.660Z,4.77
2022-10-13T11:41:18.991Z,3.93
2022-10-13T11:43:35.148Z,8.87
2022-10-13T11:45:50.732Z,5.90
2022-10-13T11:48:13.267Z,5.83
2022-10-13T11:50:27.595Z,4.53
2022-10-13T11:52:50.723Z,4.13
2022-10-13T11:55:03.793Z,6.70
2022-10-13T11:57:20.512Z,6.83
2022-10-13T11:59:31.236Z,4.97
2022-10-13T12:01:45.883Z,4.03
2022-10-13T12:03:54.743Z,4.30
2022-10-13T12:06:04.824Z,7.90
2022-10-13T12:08:13.623Z,4.90
2022-10-13T12:10:26.003Z,4.63
2022-10-13T12:12:35.216Z,4.93
2022-10-13T12:14:45.245Z,7.53
2022-10-13T12:16:59.313Z,6.10
2022-10-13T12:19:08.959Z,6.63
2022-10-13T12:21:20.607Z,8.67
2022-10-13T12:23:30.498Z,4.70
2022-10-13T12:25:39.238Z,9.90
2022-10-13T12:27:49.099Z,6.17
2022-10-13T12:29:58.306Z,4.53
2022-10-13T12:32:21.275Z,5.83
2022-10-13T12:34:32.696Z,5.93
2022-10-13T12:36:42.171Z,6.90
2022-10-13T12:38:52.146Z,8.13
2022-10-13T12:41:01.518Z,5.30
2022-10-13T12:43:11.466Z,4.17
2022-10-13T12:45:21.636Z,10.07
2022-10-13T12:47:48.394Z,8.53
2022-10-13T12:50:12.334Z,8.60
2022-10-13T12:52:27.396Z,6.73
2022-10-13T12:54:37.742Z,7.47
2022-10-13T12:56:46.837Z,9.10
2022-10-13T12:58:56.011Z,6.53
2022-10-13T13:01:10.704Z,5.27
2022-10-13T13:03:28.163Z,5.37
2022-10-13T13:05:38.138Z,6.80
2022-10-13T13:07:55.119Z,3.43
2022-10-13T13:10:05.993Z,6.20
2022-10-13T13:12:23.929Z,6.17
2022-10-13T13:14:40.158Z,6.07
2022-10-13T13:17:04.609Z,7.23
2022-10-13T13:19:25.117Z,6.20
2022-10-13T13:21:34.176Z,5.67
2022-10-13T13:23:43.413Z,4.97
2022-10-13T13:26:02.438Z,4.00
2022-10-13T13:28:12.819Z,8.00
2022-10-13T13:30:22.571Z,3.47
2022-10-13T13:32:35.090Z,5.33
2022-10-13T13:34:48.317Z,4.87
2022-10-13T13:36:57.152Z,5.27
2022-10-13T13:39:06.016Z,4.33
2022-10-13T13:41:15.663Z,4.77
2022-10-13T13:43:25.035Z,5.63
2022-10-13T13:45:35.645Z,7.50
2022-10-13T13:47:44.550Z,6.13
2022-10-13T13:49:56.179Z,5.20
2022-10-13T13:52:05.321Z,6.85
2022-10-13T13:54:14.224Z,7.00
2022-10-13T13:56:22.909Z,5.23
2022-10-13T13:58:31.894Z,6.27
2022-10-13T14:00:40.815Z,7.80
2022-10-13T14:02:49.843Z,4.70
2022-10-13T14:05:00.591Z,10.07
2022-10-13T14:07:09.356Z,6.27
2022-10-13T14:09:18.551Z,6.97
2022-10-13T14:11:27.809Z,6.57
2022-10-13T14:13:37.038Z,6.33
2022-10-13T14:15:45.942Z,7.10
2022-10-13T14:17:55.112Z,5.10
2022-10-13T14:20:05.502Z,5.27
2022-10-13T14:22:14.245Z,6.17
2022-10-13T14:24:23.281Z,4.37
2022-10-13T14:26:32.260Z,5.33
2022-10-13T14:28:42.598Z,3.90
2022-10-13T14:30:51.445Z,4.23
2022-10-13T14:33:00.198Z,6.00
2022-10-13T14:35:11.443Z,7.73
2022-10-13T14:37:23.190Z,4.90
2022-10-13T14:39:32.599Z,3.93
2022-10-13T14:41:41.517Z,6.87
2022-10-13T14:43:51.090Z,4.93
2022-10-13T14:46:03.194Z,9.30
2022-10-13T14:48:12.349Z,5.47
2022-10-13T14:50:23.063Z,7.53
2022-10-13T14:52:32.068Z,7.20
2022-10-13T14:54:44.686Z,4.67
2022-10-13T14:56:54.025Z,5.73
2022-10-13T14:59:05.114Z,3.60
2022-10-13T15:01:13.927Z,4.33
2022-10-13T15:03:22.579Z,4.13
2022-10-13T15:05:33.086Z,3.37
2022-10-13T15:07:42.023Z,6.10
2022-10-13T15:09:52.854Z,4.50
2022-10-13T15:12:12.166Z,3.40
2022-10-13T15:14:21.039Z,4.63
2022-10-13T15:16:31.264Z,6.37
2022-10-13T15:18:40.490Z,4.73
2022-10-13T15:20:51.926Z,5.73
2022-10-13T15:23:00.687Z,6.00
2022-10-13T15:25:11.869Z,4.67
2022-10-13T15:27:20.849Z,7.37
2022-10-13T15:29:29.826Z,6.60
2022-10-13T15:31:38.882Z,4.70
2022-10-13T15:33:48.563Z,5.60
2022-10-13T15:35:59.326Z,3.80
2022-10-13T15:38:07.987Z,4.43
2022-10-13T15:40:16.764Z,4.27
2022-10-13T15:42:25.388Z,7.13
2022-10-13T15:44:57.477Z,5.07
2022-10-13T15:47:08.244Z,4.33
2022-10-13T15:49:17.457Z,8.47
2022-10-13T15:51:27.945Z,4.50
2022-10-13T15:53:36.615Z,5.73
2022-10-13T15:55:45.548Z,4.17
2022-10-13T15:57:54.725Z,6.13
2022-10-13T16:00:03.332Z,4.37
2022-10-13T16:02:12.574Z,5.57
2022-10-13T16:04:21.478Z,4.00
2022-10-13T16:06:34.015Z,7.30
2022-10-13T16:08:44.591Z,5.17
2022-10-13T16:10:53.756Z,11.03
2022-10-13T16:13:02.314Z,7.43
2022-10-13T16:15:11.632Z,6.63
2022-10-13T16:17:20.244Z,5.83
2022-10-13T16:19:41.419Z,4.87
2022-10-13T16:21:52.341Z,8.13
2022-10-13T16:24:01.541Z,4.23
2022-10-13T16:26:11.169Z,3.73
2022-10-13T16:28:20.268Z,6.80
2022-10-13T16:30:30.583Z,7.47
2022-10-13T16:32:42.890Z,5.80
2022-10-13T16:34:51.874Z,4.73
2022-10-13T16:37:02.651Z,5.83
2022-10-13T16:39:11.736Z,6.83
2022-10-13T16:41:21.104Z,4.40
2022-10-13T16:43:31.912Z,9.47
2022-10-13T16:45:59.305Z,4.07
2022-10-13T16:48:08.776Z,6.37
2022-10-13T16:50:17.790Z,9.80
2022-10-13T16:52:28.441Z,8.90
2022-10-13T16:54:37.187Z,5.83
2022-10-13T16:56:47.121Z,4.67
2022-10-13T16:58:57.061Z,5.50
2022-10-13T17:01:08.946Z,6.17
2022-10-13T17:03:17.685Z,4.07
2022-10-13T17:05:26.242Z,9.33
2022-10-13T17:07:36.995Z,6.40
2022-10-13T17:09:46.309Z,4.00
2022-10-13T17:11:54.894Z,6.50
2022-10-13T17:14:04.025Z,5.87
2022-10-13T17:16:13.410Z,8.23
2022-10-13T17:18:22.930Z,7.97
2022-10-13T17:20:32.113Z,7.50
2022-10-13T17:22:43.146Z,5.73
2022-10-13T17:24:52.097Z,9.20
2022-10-13T17:27:00.901Z,6.77
2022-10-13T17:29:09.908Z,8.87
2022-10-13T17:31:20.261Z,7.10
2022-10-13T17:33:29.310Z,14.50
2022-10-13T17:35:38.136Z,17.63
2022-10-13T17:37:51.245Z,15.23
2022-10-13T17:39:59.953Z,5.57
2022-10-13T17:42:08.835Z,7.80
2022-10-13T17:44:20.590Z,5.00
2022-10-13T17:46:36.998Z,6.37
2022-10-13T17:48:46.820Z,6.20
2022-10-13T17:50:55.713Z,6.33
2022-10-13T17:53:05.962Z,12.03
2022-10-13T17:55:14.625Z,7.13
2022-10-13T17:57:23.612Z,7.90
2022-10-13T17:59:32.540Z,8.03
2022-10-13T18:01:42.297Z,10.23
2022-10-13T18:03:52.879Z,9.27
2022-10-13T18:06:02.035Z,7.87
2022-10-13T18:08:12.046Z,8.00
2022-10-13T18:10:20.801Z,8.47
2022-10-13T18:12:30.512Z,8.70
2022-10-13T18:14:39.631Z,5.07
2022-10-13T18:16:50.219Z,8.13
2022-10-13T18:18:59.563Z,10.47
2022-10-13T18:21:09.550Z,12.67
2022-10-13T18:23:20.266Z,12.73
2022-10-13T18:25:29.722Z,8.63
2022-10-13T18:27:38.953Z,9.97
2022-10-13T18:29:48.236Z,7.13
2022-10-13T18:31:57.618Z,10.10
2022-10-13T18:34:07.822Z,8.30
2022-10-13T18:36:20.094Z,10.40
2022-10-13T18:38:30.911Z,8.13
2022-10-13T18:40:39.928Z,11.23
2022-10-13T18:42:54.841Z,6.63
2022-10-13T18:45:04.304Z,11.77
2022-10-13T18:47:13.311Z,8.07
2022-10-13T18:49:31.051Z,12.33
2022-10-13T18:51:41.234Z,8.33
2022-10-13T18:53:52.205Z,13.83
2022-10-13T18:56:05.173Z,9.90
2022-10-13T18:58:14.385Z,8.07
2022-10-13T19:00:23.636Z,10.73
2022-10-13T19:02:32.746Z,8.43
2022-10-13T19:04:41.656Z,8.97
2022-10-13T19:06:50.288Z,16.30
2022-10-13T19:09:01.989Z,11.97
2022-10-13T19:11:14.254Z,15.53
2022-10-13T19:13:23.129Z,7.17
2022-10-13T19:15:31.929Z,9.50
2022-10-13T19:17:40.636Z,11.63
2022-10-13T19:19:49.468Z,8.87
2022-10-13T19:21:58.381Z,12.63
2022-10-13T19:24:09.400Z,9.53
2022-10-13T19:26:19.944Z,14.00
2022-10-13T19:28:28.790Z,14.07
2022-10-13T19:30:37.793Z,11.27
2022-10-13T19:32:47.194Z,6.73
2022-10-13T19:34:55.835Z,8.10
2022-10-13T19:37:05.353Z,7.10
2022-10-13T19:39:27.897Z,7.07
2022-10-13T19:41:37.067Z,11.33
2022-10-13T19:43:46.012Z,15.67
2022-10-13T19:45:59.749Z,13.00
2022-10-13T19:48:09.307Z,8.17
2022-10-13T19:50:18.234Z,11.93
2022-10-13T19:52:27.423Z,12.83
2022-10-13T19:54:37.548Z,11.63
2022-10-13T19:56:47.898Z,6.30
2022-10-13T19:58:57.320Z,10.90
2022-10-13T20:01:08.381Z,10.23
2022-10-13T20:03:17.957Z,12.97
2022-10-13T20:05:26.846Z,9.70
2022-10-13T20:07:36.006Z,11.37
2022-10-13T20:09:46.850Z,11.20
2022-10-13T20:11:55.410Z,10.20
2022-10-13T20:14:04.419Z,9.67
2022-10-13T20:16:14.216Z,10.33
2022-10-13T20:18:23.172Z,9.13
2022-10-13T20:20:31.742Z,13.33
2022-10-13T20:22:41.169Z,11.97
2022-10-13T20:24:51.612Z,12.27
2022-10-13T20:27:00.600Z,8.37
2022-10-13T20:29:09.355Z,11.90
2022-10-13T20:31:19.679Z,9.47
2022-10-13T20:33:28.480Z,15.53
2022-10-13T20:35:37.893Z,10.33
2022-10-13T20:37:46.775Z,10.37
2022-10-13T20:39:57.452Z,9.70
2022-10-13T20:42:07.563Z,13.47
2022-10-13T20:44:16.518Z,12.87
2022-10-13T20:46:25.609Z,10.17
2022-10-13T20:48:57.777Z,12.47
2022-10-13T20:51:04.370Z,12.17
2022-10-13T20:53:12.950Z,10.60
2022-10-13T20:55:23.503Z,9.70
2022-10-13T20:57:32.557Z,12.77
2022-10-13T20:59:41.332Z,8.77
2022-10-13T21:01:50.733Z,11.33
2022-10-13T21:03:59.546Z,15.43
2022-10-13T21:06:09.362Z,6.73
2022-10-13T21:08:19.092Z,10.77
2022-10-13T21:10:29.204Z,9.67
2022-10-13T21:12:37.769Z,11.73
2022-10-13T21:14:46.491Z,12.43
2022-10-13T21:16:55.685Z,16.37
2022-10-13T21:19:05.190Z,10.00
2022-10-13T21:21:14.171Z,8.90
2022-10-13T21:23:23.108Z,11.30
2022-10-13T21:25:33.787Z,9.90
2022-10-13T21:27:42.615Z,12.27
2022-10-13T21:29:51.849Z,11.83
2022-10-13T21:32:00.504Z,9.33
2022-10-13T21:34:09.090Z,12.07
2022-10-13T21:36:19.276Z,15.13
2022-10-13T21:38:28.422Z,15.47
2022-10-13T21:40:40.084Z,12.33
2022-10-13T21:42:49.165Z,16.27
2022-10-13T21:44:58.346Z,9.50
2022-10-13T21:47:07.344Z,12.07
2022-10-13T21:49:15.909Z,14.43
2022-10-13T21:51:26.242Z,11.03
2022-10-13T21:53:34.995Z,14.73
2022-10-13T21:55:45.471Z,12.40
2022-10-13T21:57:55.053Z,16.53
2022-10-13T22:00:04.116Z,15.13
2022-10-13T22:02:13.113Z,10.53
2022-10-13T22:04:21.902Z,12.40
2022-10-13T22:06:31.765Z,15.07
2022-10-13T22:08:41.543Z,13.73
2022-10-13T22:10:52.005Z,12.97
2022-10-13T22:13:00.791Z,12.17
2022-10-13T22:15:10.216Z,13.17
2022-10-13T22:17:19.126Z,10.80
2022-10-13T22:19:28.250Z,11.10
2022-10-13T22:21:37.963Z,10.90
2022-10-13T22:23:47.594Z,12.27
2022-10-13T22:25:58.572Z,12.67
2022-10-13T22:28:07.617Z,14.27
2022-10-13T22:30:16.521Z,11.03
2022-10-13T22:32:25.523Z,9.70
2022-10-13T22:34:34.455Z,10.67
2022-10-13T22:36:44.967Z,12.53
2022-10-13T22:38:55.854Z,12.47
2022-10-13T22:41:07.860Z,15.30
2022-10-13T22:43:16.913Z,13.07
2022-10-13T22:45:25.800Z,11.90
2022-10-13T22:47:34.758Z,11.70
2022-10-13T22:49:43.485Z,13.50
2022-10-13T22:51:52.579Z,13.07
2022-10-13T22:54:01.563Z,12.73
2022-10-13T22:56:13.801Z,12.30
2022-10-13T22:58:22.633Z,12.23
2022-10-13T23:00:31.233Z,11.43
2022-10-13T23:02:40.023Z,14.63
2022-10-13T23:04:51.163Z,13.90
2022-10-13T23:07:00.151Z,12.53
2022-10-13T23:09:10.208Z,13.17
2022-10-13T23:11:21.185Z,12.40
2022-10-13T23:13:30.228Z,8.97
2022-10-13T23:15:40.913Z,14.50
2022-10-13T23:17:50.070Z,11.37
2022-10-13T23:19:59.074Z,11.57
2022-10-13T23:22:08.279Z,14.07
2022-10-13T23:24:17.587Z,12.93
2022-10-13T23:26:28.737Z,11.17
2022-10-13T23:28:37.933Z,15.73
2022-10-13T23:30:46.748Z,12.10
2022-10-13T23:32:55.567Z,13.87
2022-10-13T23:35:04.670Z,16.07
2022-10-13T23:37:13.279Z,9.93
2022-10-13T23:39:21.856Z,10.13
2022-10-13T23:41:32.757Z,11.00
2022-10-13T23:43:42.712Z,12.43
2022-10-13T23:45:51.263Z,15.60
2022-10-13T23:47:59.967Z,15.03
2022-10-13T23:50:09.292Z,13.07
2022-10-13T23:52:17.858Z,10.37
2022-10-13T23:54:26.668Z,11.67
2022-10-13T23:56:37.047Z,13.23
2022-10-13T23:58:46.264Z,11.87
